createdAt,value
2018-07-10T00:00:49.910Z,1.10
2018-07-10T00:01:49.900Z,1.60
2018-07-10T00:02:49.864Z,1.50
2018-07-10T00:03:49.890Z,1.30
2018-07-10T00:04:49.827Z,1.60
2018-07-10T00:05:49.839Z,1.10
2018-07-10T00:06:49.823Z,1.10
2018-07-10T00:07:49.810Z,1.10
2018-07-10T00:08:49.765Z,1.20
2018-07-10T00:09:49.738Z,1.10
2018-07-10T00:10:49.732Z,1.20
2018-07-10T00:11:49.733Z,1.10
2018-07-10T00:12:49.701Z,1.20
2018-07-10T00:13:49.680Z,1.50
2018-07-10T00:14:49.660Z,1.40
2018-07-10T00:15:49.627Z,1.20
2018-07-10T00:16:49.628Z,1.20
2018-07-10T00:17:49.606Z,1.20
2018-07-10T00:18:49.589Z,1.30
2018-07-10T00:19:49.573Z,1.60
2018-07-10T00:20:49.553Z,1.40
2018-07-10T00:21:49.577Z,1.30
2018-07-10T00:22:49.505Z,1.40
2018-07-10T00:23:49.540Z,1.50
2018-07-10T00:24:49.468Z,1.50
2018-07-10T00:25:49.463Z,1.20
2018-07-10T00:26:49.467Z,1.30
2018-07-10T00:27:49.422Z,1.60
2018-07-10T00:28:49.396Z,1.00
2018-07-10T00:29:49.396Z,1.00
2018-07-10T00:30:49.359Z,1.10
2018-07-10T00:31:49.351Z,1.10
2018-07-10T00:32:49.334Z,1.60
2018-07-10T00:33:49.311Z,1.00
2018-07-10T00:34:49.294Z,1.40
2018-07-10T00:35:49.296Z,1.40
2018-07-10T00:36:49.255Z,1.20
2018-07-10T00:37:49.260Z,1.30
2018-07-10T00:38:49.245Z,1.30
2018-07-10T00:39:49.233Z,1.20
2018-07-10T00:40:49.222Z,1.40
2018-07-10T00:41:49.205Z,1.50
2018-07-10T00:42:49.157Z,1.40
2018-07-10T00:43:49.127Z,1.30
2018-07-10T00:44:49.109Z,1.30
2018-07-10T00:45:49.110Z,1.10
2018-07-10T00:46:49.105Z,1.30
2018-07-10T00:47:49.054Z,1.30
2018-07-10T00:48:49.044Z,1.10
2018-07-10T00:49:49.028Z,1.30
2018-07-10T00:50:49.009Z,1.50
2018-07-10T00:51:48.998Z,1.00
2018-07-10T00:52:49.005Z,1.50
2018-07-10T00:53:48.963Z,1.30
2018-07-10T00:54:48.927Z,1.20
2018-07-10T00:55:48.936Z,1.50
2018-07-10T00:56:48.906Z,1.10
2018-07-10T00:57:48.880Z,1.50
2018-07-10T00:58:48.861Z,1.30
2018-07-10T00:59:48.848Z,1.00
2018-07-10T01:00:48.835Z,1.30
2018-07-10T01:01:48.810Z,1.40
2018-07-10T01:02:48.789Z,1.20
2018-07-10T01:03:48.790Z,1.40
2018-07-10T01:04:48.769Z,1.20
2018-07-10T01:05:48.767Z,1.30
2018-07-10T01:06:48.736Z,1.10
2018-07-10T01:07:48.744Z,1.50
2018-07-10T01:08:48.699Z,1.10
2018-07-10T01:09:48.662Z,1.60
2018-07-10T01:10:48.668Z,1.50
2018-07-10T01:11:48.651Z,1.20
2018-07-10T01:12:48.615Z,1.20
2018-07-10T01:13:48.583Z,1.10
2018-07-10T01:14:48.584Z,1.00
2018-07-10T01:15:48.583Z,1.50
2018-07-10T01:16:48.568Z,1.40
2018-07-10T01:17:48.525Z,1.10
2018-07-10T01:18:48.524Z,1.40
2018-07-10T01:19:48.485Z,1.50
2018-07-10T01:20:48.499Z,1.40
2018-07-10T01:21:48.474Z,1.10
2018-07-10T01:22:48.463Z,1.10
2018-07-10T01:23:48.406Z,1.30
2018-07-10T01:24:48.400Z,1.10
2018-07-10T01:25:48.367Z,1.10
2018-07-10T01:26:48.352Z,1.30
2018-07-10T01:27:48.346Z,1.30
2018-07-10T01:28:48.336Z,1.20
2018-07-10T01:29:48.296Z,1.10
2018-07-10T01:30:48.290Z,1.50
2018-07-10T01:31:48.298Z,1.10
2018-07-10T01:32:48.239Z,1.00
2018-07-10T01:33:48.362Z,1.60
2018-07-10T01:34:48.227Z,1.00
2018-07-10T01:35:48.193Z,1.30
2018-07-10T01:36:48.179Z,1.30
2018-07-10T01:37:48.170Z,1.50
2018-07-10T01:38:48.135Z,1.50
2018-07-10T01:39:48.126Z,1.50
2018-07-10T01:40:48.096Z,1.10
2018-07-10T01:41:48.096Z,1.10
2018-07-10T01:42:48.062Z,1.30
2018-07-10T01:43:48.040Z,1.30
2018-07-10T01:44:48.033Z,1.60
2018-07-10T01:45:48.015Z,1.40
2018-07-10T01:46:47.993Z,1.50
2018-07-10T01:47:47.997Z,1.40
2018-07-10T01:48:47.948Z,1.50
2018-07-10T01:49:47.934Z,1.30
2018-07-10T01:50:47.913Z,1.40
2018-07-10T01:51:47.916Z,1.30
2018-07-10T01:52:47.898Z,1.50
2018-07-10T01:53:47.873Z,1.20
2018-07-10T01:54:47.840Z,1.30
2018-07-10T01:55:47.844Z,1.40
2018-07-10T01:56:47.808Z,1.70
2018-07-10T01:57:47.790Z,1.40
2018-07-10T01:58:47.772Z,1.30
2018-07-10T01:59:47.762Z,1.00
2018-07-10T02:00:47.733Z,1.20
2018-07-10T02:01:47.736Z,1.20
2018-07-10T02:02:47.707Z,1.00
2018-07-10T02:03:47.688Z,1.40
2018-07-10T02:04:47.666Z,1.30
2018-07-10T02:05:47.644Z,1.00
2018-07-10T02:06:47.627Z,1.30
2018-07-10T02:07:47.615Z,1.20
2018-07-10T02:08:47.612Z,1.30
2018-07-10T02:09:47.572Z,1.00
2018-07-10T02:10:47.587Z,1.00
2018-07-10T02:11:47.541Z,1.30
2018-07-10T02:12:47.542Z,1.50
2018-07-10T02:13:47.502Z,1.10
2018-07-10T02:14:47.500Z,1.40
2018-07-10T02:15:47.477Z,1.30
2018-07-10T02:16:47.462Z,1.20
2018-07-10T02:17:47.452Z,1.40
2018-07-10T02:18:47.416Z,1.40
2018-07-10T02:19:47.386Z,1.30
2018-07-10T02:20:47.390Z,1.20
2018-07-10T02:21:47.367Z,1.40
2018-07-10T02:22:47.356Z,1.40
2018-07-10T02:23:47.310Z,1.10
2018-07-10T02:24:47.290Z,1.40
2018-07-10T02:25:47.286Z,1.20
2018-07-10T02:26:47.260Z,1.30
2018-07-10T02:27:47.249Z,1.50
2018-07-10T02:28:47.233Z,1.30
2018-07-10T02:29:47.219Z,1.30
2018-07-10T02:30:47.200Z,1.50
2018-07-10T02:31:47.165Z,1.30
2018-07-10T02:32:47.176Z,1.30
2018-07-10T02:33:47.148Z,1.40
2018-07-10T02:34:47.129Z,1.20
2018-07-10T02:35:47.087Z,1.50
2018-07-10T02:36:47.082Z,1.60
2018-07-10T02:37:47.071Z,1.70
2018-07-10T02:38:47.064Z,1.80
2018-07-10T02:39:47.013Z,1.50
2018-07-10T02:40:47.004Z,1.50
2018-07-10T02:41:46.980Z,1.30
2018-07-10T02:42:46.981Z,1.50
2018-07-10T02:43:46.952Z,1.60
2018-07-10T02:44:46.935Z,1.40
2018-07-10T02:45:46.905Z,1.30
2018-07-10T02:46:46.897Z,1.60
2018-07-10T02:47:46.870Z,1.60
2018-07-10T02:48:46.861Z,1.40
2018-07-10T02:49:46.863Z,1.60
2018-07-10T02:50:46.843Z,1.30
2018-07-10T02:51:46.807Z,1.40
2018-07-10T02:52:46.787Z,1.60
2018-07-10T02:53:46.767Z,1.50
2018-07-10T02:54:46.757Z,1.40
2018-07-10T02:55:46.722Z,1.50
2018-07-10T02:56:46.715Z,1.30
2018-07-10T02:57:46.685Z,1.60
2018-07-10T02:58:46.669Z,1.30
2018-07-10T02:59:46.681Z,1.50
2018-07-10T03:00:46.626Z,1.40
2018-07-10T03:01:46.617Z,1.30
2018-07-10T03:02:46.627Z,1.20
2018-07-10T03:03:46.598Z,1.20
2018-07-10T03:04:46.562Z,1.00
2018-07-10T03:05:46.550Z,1.40
2018-07-10T03:06:46.543Z,1.50
2018-07-10T03:07:46.532Z,1.10
2018-07-10T03:08:46.485Z,1.40
2018-07-10T03:09:46.482Z,1.60
2018-07-10T03:10:46.451Z,1.30
2018-07-10T03:11:46.442Z,1.10
2018-07-10T03:12:46.409Z,1.30
2018-07-10T03:13:46.396Z,1.60
2018-07-10T03:14:46.379Z,1.20
2018-07-10T03:15:46.384Z,1.50
2018-07-10T03:16:46.351Z,1.40
2018-07-10T03:17:46.327Z,1.40
2018-07-10T03:18:46.330Z,1.50
2018-07-10T03:19:46.312Z,1.20
2018-07-10T03:20:46.256Z,1.20
2018-07-10T03:21:46.259Z,1.40
2018-07-10T03:22:46.221Z,1.40
2018-07-10T03:23:46.250Z,1.20
2018-07-10T03:24:46.191Z,1.20
2018-07-10T03:25:46.171Z,1.60
2018-07-10T03:26:46.182Z,1.50
2018-07-10T03:27:46.139Z,1.40
2018-07-10T03:28:46.127Z,1.40
2018-07-10T03:29:46.094Z,1.20
2018-07-10T03:30:46.078Z,1.30
2018-07-10T03:31:46.101Z,1.30
2018-07-10T03:32:46.039Z,1.60
2018-07-10T03:33:46.020Z,1.30
2018-07-10T03:34:45.998Z,1.30
2018-07-10T03:35:45.982Z,1.10
2018-07-10T03:36:45.964Z,1.30
2018-07-10T03:37:45.942Z,1.30
2018-07-10T03:38:45.960Z,1.10
2018-07-10T03:39:45.918Z,1.10
2018-07-10T03:40:45.885Z,1.20
2018-07-10T03:41:45.871Z,1.20
2018-07-10T03:42:45.892Z,1.30
2018-07-10T03:43:45.860Z,1.40
2018-07-10T03:44:45.855Z,1.40
2018-07-10T03:45:45.794Z,1.60
2018-07-10T03:46:45.803Z,1.60
2018-07-10T03:47:45.789Z,1.30
2018-07-10T03:48:45.737Z,1.20
2018-07-10T03:49:45.744Z,1.40
2018-07-10T03:50:45.747Z,1.20
2018-07-10T03:51:45.686Z,1.40
2018-07-10T03:52:45.661Z,1.40
2018-07-10T03:53:45.664Z,1.50
2018-07-10T03:54:45.646Z,1.20
2018-07-10T03:55:45.633Z,1.30
2018-07-10T03:56:45.608Z,1.10
2018-07-10T03:57:45.595Z,1.20
2018-07-10T03:58:45.561Z,1.40
2018-07-10T03:59:45.559Z,1.20
2018-07-10T04:00:45.540Z,1.10
2018-07-10T04:01:45.560Z,1.40
2018-07-10T04:02:45.485Z,1.40
2018-07-10T04:03:45.474Z,1.50
2018-07-10T04:04:45.469Z,1.40
2018-07-10T04:05:45.427Z,1.40
2018-07-10T04:06:45.405Z,1.30
2018-07-10T04:07:45.393Z,1.40
2018-07-10T04:08:45.395Z,1.30
2018-07-10T04:09:45.348Z,1.30
2018-07-10T04:10:45.344Z,1.20
2018-07-10T04:11:45.374Z,1.50
2018-07-10T04:12:45.310Z,1.40
2018-07-10T04:13:45.277Z,1.40
2018-07-10T04:14:45.260Z,1.60
2018-07-10T04:15:45.253Z,1.90
2018-07-10T04:16:45.237Z,1.70
2018-07-10T04:17:45.224Z,2.00
2018-07-10T04:18:45.191Z,2.00
2018-07-10T04:19:45.184Z,2.20
2018-07-10T04:20:45.177Z,2.00
2018-07-10T04:21:45.138Z,2.10
2018-07-10T04:22:45.153Z,1.90
2018-07-10T04:23:45.120Z,1.50
2018-07-10T04:24:45.106Z,1.60
2018-07-10T04:25:45.094Z,1.70
2018-07-10T04:26:45.037Z,1.90
2018-07-10T04:27:45.015Z,1.50
2018-07-10T04:28:45.004Z,1.40
2018-07-10T04:29:44.997Z,1.70
2018-07-10T04:30:44.967Z,1.60
2018-07-10T04:31:44.981Z,1.70
2018-07-10T04:32:44.947Z,1.50
2018-07-10T04:33:44.919Z,2.10
2018-07-10T04:34:44.898Z,1.90
2018-07-10T04:35:44.875Z,1.40
2018-07-10T04:36:44.872Z,1.80
2018-07-10T04:37:44.837Z,1.60
2018-07-10T04:38:44.818Z,1.70
2018-07-10T04:39:44.793Z,2.00
2018-07-10T04:40:44.799Z,2.10
2018-07-10T04:41:44.755Z,2.20
2018-07-10T04:42:44.749Z,2.00
2018-07-10T04:43:44.739Z,2.10
2018-07-10T04:44:44.739Z,2.30
2018-07-10T04:45:44.680Z,2.20
2018-07-10T04:46:44.665Z,2.10
2018-07-10T04:47:44.648Z,1.90
2018-07-10T04:48:44.640Z,2.10
2018-07-10T04:49:44.630Z,1.90
2018-07-10T04:50:44.614Z,1.90
2018-07-10T04:51:44.576Z,2.00
2018-07-10T04:52:44.584Z,2.40
2018-07-10T04:53:44.553Z,2.10
2018-07-10T04:54:44.547Z,1.80
2018-07-10T04:55:44.501Z,1.50
2018-07-10T04:56:44.500Z,1.20
2018-07-10T04:57:44.475Z,1.10
2018-07-10T04:58:44.449Z,1.60
2018-07-10T04:59:44.450Z,1.50
2018-07-10T05:00:44.430Z,1.40
2018-07-10T05:01:44.416Z,1.30
2018-07-10T05:02:44.368Z,1.20
2018-07-10T05:03:44.382Z,1.40
2018-07-10T05:04:44.380Z,1.20
2018-07-10T05:05:44.367Z,1.60
2018-07-10T05:06:44.298Z,1.50
2018-07-10T05:07:44.303Z,1.50
2018-07-10T05:08:44.266Z,1.70
2018-07-10T05:09:44.238Z,1.70
2018-07-10T05:10:44.220Z,1.70
2018-07-10T05:11:44.204Z,1.70
2018-07-10T05:12:44.188Z,2.20
2018-07-10T05:13:44.190Z,2.20
2018-07-10T05:14:44.149Z,1.60
2018-07-10T05:15:44.140Z,1.90
2018-07-10T05:16:44.139Z,1.70
2018-07-10T05:17:44.132Z,1.50
2018-07-10T05:18:44.075Z,1.70
2018-07-10T05:19:44.063Z,1.70
2018-07-10T05:20:44.040Z,1.80
2018-07-10T05:21:44.025Z,1.70
2018-07-10T05:22:44.035Z,1.30
2018-07-10T05:23:43.997Z,1.60
2018-07-10T05:24:43.987Z,1.60
2018-07-10T05:25:43.949Z,1.80
2018-07-10T05:26:43.936Z,2.10
2018-07-10T05:27:43.913Z,1.90
2018-07-10T05:28:43.965Z,2.10
2018-07-10T05:29:43.877Z,2.30
2018-07-10T05:30:43.868Z,2.00
2018-07-10T05:31:43.849Z,2.20
2018-07-10T05:32:43.869Z,2.00
2018-07-10T05:33:43.814Z,1.90
2018-07-10T05:34:43.806Z,2.20
2018-07-10T05:35:43.772Z,2.10
2018-07-10T05:36:43.761Z,1.70
2018-07-10T05:37:43.775Z,2.00
2018-07-10T05:38:43.714Z,2.10
2018-07-10T05:39:43.694Z,1.80
2018-07-10T05:40:43.702Z,1.30
2018-07-10T05:41:43.696Z,1.70
2018-07-10T05:42:43.646Z,2.00
2018-07-10T05:43:43.655Z,1.70
2018-07-10T05:44:43.614Z,1.90
2018-07-10T05:45:43.595Z,2.00
2018-07-10T05:46:43.573Z,1.60
2018-07-10T05:47:43.566Z,1.80
2018-07-10T05:48:43.532Z,1.90
2018-07-10T05:49:43.535Z,1.50
2018-07-10T05:50:43.523Z,1.70
2018-07-10T05:51:43.523Z,1.50
2018-07-10T05:52:43.473Z,2.00
2018-07-10T05:53:43.463Z,1.70
2018-07-10T05:54:43.448Z,1.70
2018-07-10T05:55:43.431Z,1.60
2018-07-10T05:56:43.405Z,1.70
2018-07-10T05:57:43.384Z,1.70
2018-07-10T05:58:43.482Z,1.90
2018-07-10T05:59:43.348Z,1.30
2018-07-10T06:00:43.324Z,1.70
2018-07-10T06:01:43.341Z,1.70
2018-07-10T06:02:43.316Z,1.40
2018-07-10T06:03:43.269Z,1.40
2018-07-10T06:04:43.317Z,1.70
2018-07-10T06:05:43.241Z,1.90
2018-07-10T06:06:43.227Z,1.50
2018-07-10T06:07:43.216Z,1.30
2018-07-10T06:08:43.219Z,1.20
2018-07-10T06:09:43.185Z,1.30
2018-07-10T06:10:43.171Z,1.40
2018-07-10T06:11:43.175Z,1.10
2018-07-10T06:12:43.125Z,1.30
2018-07-10T06:13:43.124Z,1.30
2018-07-10T06:14:43.096Z,1.70
2018-07-10T06:15:43.081Z,1.30
2018-07-10T06:16:43.077Z,1.50
2018-07-10T06:17:43.041Z,1.40
2018-07-10T06:18:43.028Z,1.20
2018-07-10T06:19:43.006Z,1.20
2018-07-10T06:20:43.009Z,1.40
2018-07-10T06:21:42.969Z,1.70
2018-07-10T06:22:42.962Z,1.60
2018-07-10T06:23:42.955Z,1.40
2018-07-10T06:24:42.944Z,1.60
2018-07-10T06:25:42.916Z,1.90
2018-07-10T06:26:42.924Z,1.90
2018-07-10T06:27:42.868Z,1.50
2018-07-10T06:28:42.895Z,2.10
2018-07-10T06:29:42.850Z,2.00
2018-07-10T06:30:42.828Z,1.90
2018-07-10T06:31:42.826Z,1.90
2018-07-10T06:32:42.797Z,2.30
2018-07-10T06:33:42.779Z,2.20
2018-07-10T06:34:42.759Z,2.00
2018-07-10T06:35:42.763Z,1.70
2018-07-10T06:36:42.745Z,1.80
2018-07-10T06:37:42.701Z,1.60
2018-07-10T06:38:42.709Z,1.60
2018-07-10T06:39:42.713Z,1.50
2018-07-10T06:40:42.659Z,1.60
2018-07-10T06:41:42.667Z,1.80
2018-07-10T06:42:42.633Z,1.60
2018-07-10T06:43:42.596Z,2.30
2018-07-10T06:44:42.590Z,1.90
2018-07-10T06:45:42.564Z,1.50
2018-07-10T06:46:42.553Z,1.90
2018-07-10T06:47:42.550Z,1.70
2018-07-10T06:48:42.543Z,1.90
2018-07-10T06:49:42.522Z,1.70
2018-07-10T06:50:42.481Z,1.60
2018-07-10T06:51:42.469Z,1.90
2018-07-10T06:52:42.633Z,1.70
2018-07-10T06:53:42.554Z,1.90
2018-07-10T06:54:42.416Z,1.90
2018-07-10T06:55:42.432Z,2.00
2018-07-10T06:56:42.372Z,2.00
2018-07-10T06:57:42.371Z,2.00
2018-07-10T06:58:42.353Z,2.00
2018-07-10T06:59:42.319Z,1.90
2018-07-10T07:00:42.346Z,1.80
2018-07-10T07:01:42.304Z,2.10
2018-07-10T07:02:42.303Z,1.80
2018-07-10T07:03:42.249Z,1.80
2018-07-10T07:04:42.255Z,1.80
2018-07-10T07:05:42.217Z,2.10
2018-07-10T07:06:42.198Z,1.90
2018-07-10T07:07:42.224Z,2.00
2018-07-10T07:08:42.202Z,2.00
2018-07-10T07:09:42.161Z,1.80
2018-07-10T07:10:42.196Z,2.30
2018-07-10T07:11:42.146Z,1.70
2018-07-10T07:12:42.113Z,2.10
2018-07-10T07:13:42.080Z,2.00
2018-07-10T07:14:42.066Z,2.00
2018-07-10T07:15:42.076Z,1.80
2018-07-10T07:16:42.066Z,1.70
2018-07-10T07:17:42.016Z,2.20
2018-07-10T07:18:41.997Z,2.10
2018-07-10T07:19:41.972Z,2.30
2018-07-10T07:20:41.973Z,2.10
2018-07-10T07:21:41.985Z,2.00
2018-07-10T07:22:41.927Z,2.10
2018-07-10T07:23:41.927Z,2.00
2018-07-10T07:24:41.885Z,2.10
2018-07-10T07:25:41.861Z,2.10
2018-07-10T07:26:41.849Z,1.90
2018-07-10T07:27:41.850Z,2.20
2018-07-10T07:28:41.810Z,1.90
2018-07-10T07:29:41.824Z,2.00
2018-07-10T07:30:41.786Z,2.20
2018-07-10T07:31:41.782Z,2.30
2018-07-10T07:32:41.765Z,1.80
2018-07-10T07:33:41.734Z,2.00
2018-07-10T07:34:41.770Z,2.20
2018-07-10T07:35:41.703Z,2.00
2018-07-10T07:36:41.731Z,1.50
2018-07-10T07:37:41.667Z,1.90
2018-07-10T07:38:41.697Z,1.70
2018-07-10T07:39:41.646Z,2.00
2018-07-10T07:40:41.619Z,2.00
2018-07-10T07:41:41.584Z,1.90
2018-07-10T07:42:41.566Z,1.80
2018-07-10T07:43:41.594Z,2.30
2018-07-10T07:44:41.550Z,1.90
2018-07-10T07:45:41.533Z,1.70
2018-07-10T07:46:41.503Z,1.80
2018-07-10T07:47:41.476Z,2.00
2018-07-10T07:48:41.503Z,2.10
2018-07-10T07:49:41.467Z,2.40
2018-07-10T07:50:41.424Z,2.00
2018-07-10T07:51:41.429Z,1.70
2018-07-10T07:52:41.389Z,1.60
2018-07-10T07:53:41.416Z,1.60
2018-07-10T07:54:41.403Z,1.40
2018-07-10T07:55:41.371Z,1.90
2018-07-10T07:56:41.331Z,2.00
2018-07-10T07:57:41.311Z,1.90
2018-07-10T07:58:41.291Z,1.70
2018-07-10T07:59:41.298Z,1.90
2018-07-10T08:00:41.255Z,1.80
2018-07-10T08:01:41.255Z,2.00
2018-07-10T08:02:41.231Z,2.20
2018-07-10T08:03:41.247Z,1.60
2018-07-10T08:04:41.199Z,2.00
2018-07-10T08:05:41.185Z,1.80
2018-07-10T08:06:41.171Z,1.60
2018-07-10T08:07:41.136Z,1.20
2018-07-10T08:08:41.117Z,1.30
2018-07-10T08:09:41.119Z,1.40
2018-07-10T08:10:41.090Z,1.70
2018-07-10T08:11:41.077Z,1.20
2018-07-10T08:12:41.049Z,1.50
2018-07-10T08:13:41.036Z,1.70
2018-07-10T08:14:41.066Z,1.60
2018-07-10T08:15:41.004Z,1.50
2018-07-10T08:16:40.994Z,1.60
2018-07-10T08:17:40.963Z,1.40
2018-07-10T08:18:40.943Z,1.40
2018-07-10T08:19:40.946Z,1.30
2018-07-10T08:20:40.905Z,1.20
2018-07-10T08:21:40.893Z,1.40
2018-07-10T08:22:40.885Z,1.30
2018-07-10T08:23:40.864Z,1.20
2018-07-10T08:24:40.847Z,1.10
2018-07-10T08:25:40.825Z,1.20
2018-07-10T08:26:40.815Z,1.40
2018-07-10T08:27:40.787Z,1.20
2018-07-10T08:28:40.770Z,1.40
2018-07-10T08:29:40.766Z,1.30
2018-07-10T08:30:40.735Z,1.50
2018-07-10T08:31:40.725Z,1.50
2018-07-10T08:32:40.730Z,1.30
2018-07-10T08:33:40.742Z,1.30
2018-07-10T08:34:40.662Z,1.30
2018-07-10T08:35:40.674Z,1.50
2018-07-10T08:36:40.668Z,1.60
2018-07-10T08:37:40.660Z,1.40
2018-07-10T08:38:40.605Z,1.40
2018-07-10T08:39:40.577Z,1.10
2018-07-10T08:40:40.585Z,1.40
2018-07-10T08:41:40.553Z,1.50
2018-07-10T08:42:40.542Z,1.70
2018-07-10T08:43:40.532Z,1.40
2018-07-10T08:44:40.517Z,1.50
2018-07-10T08:45:40.473Z,1.30
2018-07-10T08:46:40.464Z,1.60
2018-07-10T08:47:40.447Z,1.20
2018-07-10T08:48:40.453Z,1.20
2018-07-10T08:49:40.436Z,1.50
2018-07-10T08:50:40.444Z,1.40
2018-07-10T08:51:40.387Z,1.60
2018-07-10T08:52:40.356Z,1.60
2018-07-10T08:53:40.372Z,1.30
2018-07-10T08:54:40.319Z,1.90
2018-07-10T08:55:40.320Z,1.50
2018-07-10T08:56:40.287Z,1.50
2018-07-10T08:57:40.286Z,1.70
2018-07-10T08:58:40.240Z,1.70
2018-07-10T08:59:40.323Z,1.40
2018-07-10T09:00:40.249Z,1.30
2018-07-10T09:01:40.210Z,1.30
2018-07-10T09:02:40.182Z,1.70
2018-07-10T09:03:40.165Z,1.60
2018-07-10T09:04:40.137Z,1.70
2018-07-10T09:05:40.142Z,1.60
2018-07-10T09:06:40.128Z,1.80
2018-07-10T09:07:40.101Z,1.60
2018-07-10T09:08:40.079Z,1.40
2018-07-10T09:09:40.080Z,1.40
2018-07-10T09:10:40.052Z,1.30
2018-07-10T09:11:40.025Z,1.80
2018-07-10T09:12:40.000Z,1.70
2018-07-10T09:13:39.991Z,1.30
2018-07-10T09:14:39.967Z,1.60
2018-07-10T09:15:39.956Z,1.40
2018-07-10T09:16:39.963Z,1.70
2018-07-10T09:17:39.914Z,1.20
2018-07-10T09:18:39.896Z,1.20
2018-07-10T09:19:39.882Z,1.60
2018-07-10T09:20:39.880Z,1.80
2018-07-10T09:21:39.848Z,1.30
2018-07-10T09:22:39.866Z,1.60
2018-07-10T09:23:39.872Z,1.40
2018-07-10T09:24:39.832Z,1.40
2018-07-10T09:25:39.773Z,1.50
2018-07-10T09:26:39.787Z,1.70
2018-07-10T09:27:39.750Z,1.60
2018-07-10T09:28:39.728Z,1.30
2018-07-10T09:29:39.703Z,1.40
2018-07-10T09:30:39.723Z,1.30
2018-07-10T09:31:39.687Z,1.40
2018-07-10T09:32:39.667Z,1.70
2018-07-10T09:33:39.701Z,1.60
2018-07-10T09:34:39.616Z,1.60
2018-07-10T09:35:39.608Z,1.40
2018-07-10T09:36:39.582Z,1.80
2018-07-10T09:37:39.570Z,1.30
2018-07-10T09:38:39.557Z,1.20
2018-07-10T09:39:39.533Z,1.50
2018-07-10T09:40:39.522Z,1.60
2018-07-10T09:41:39.511Z,1.20
2018-07-10T09:42:39.488Z,1.40
2018-07-10T09:43:39.470Z,1.50
2018-07-10T09:44:39.453Z,1.70
2018-07-10T09:45:39.433Z,1.60
2018-07-10T09:46:39.414Z,1.80
2018-07-10T09:47:39.397Z,1.30
2018-07-10T09:48:39.401Z,1.20
2018-07-10T09:49:39.356Z,1.30
2018-07-10T09:50:39.373Z,1.70
2018-07-10T09:51:39.357Z,1.40
2018-07-10T09:52:39.313Z,1.60
2018-07-10T09:53:39.292Z,1.60
2018-07-10T09:54:39.364Z,1.80
2018-07-10T09:55:39.346Z,1.50
2018-07-10T09:56:39.245Z,1.50
2018-07-10T09:57:39.223Z,1.60
2018-07-10T09:58:39.205Z,1.90
2018-07-10T09:59:39.229Z,2.00
2018-07-10T10:00:39.205Z,1.80
2018-07-10T10:01:39.157Z,1.60
2018-07-10T10:02:39.173Z,1.80
2018-07-10T10:03:39.164Z,1.90
2018-07-10T10:04:39.112Z,2.10
2018-07-10T10:05:39.109Z,1.60
2018-07-10T10:06:39.078Z,1.60
2018-07-10T10:07:39.066Z,2.00
2018-07-10T10:08:39.083Z,1.60
2018-07-10T10:09:39.088Z,1.80
2018-07-10T10:10:39.065Z,1.80
2018-07-10T10:11:39.016Z,1.70
2018-07-10T10:12:38.990Z,2.10
2018-07-10T10:13:38.962Z,1.80
2018-07-10T10:14:38.957Z,1.40
2018-07-10T10:15:38.988Z,2.00
2018-07-10T10:16:38.912Z,1.80
2018-07-10T10:17:38.947Z,1.70
2018-07-10T10:18:38.881Z,1.60
2018-07-10T10:19:38.864Z,1.80
2018-07-10T10:20:38.884Z,1.80
2018-07-10T10:21:38.853Z,1.40
2018-07-10T10:22:38.819Z,1.60
2018-07-10T10:23:38.795Z,1.80
2018-07-10T10:24:38.779Z,1.50
2018-07-10T10:25:38.831Z,1.50
2018-07-10T10:26:38.756Z,1.50
2018-07-10T10:27:38.746Z,2.30
2018-07-10T10:28:38.718Z,1.80
2018-07-10T10:29:38.716Z,1.80
2018-07-10T10:30:38.720Z,1.90
2018-07-10T10:31:38.668Z,1.70
2018-07-10T10:32:38.656Z,1.60
2018-07-10T10:33:38.640Z,1.70
2018-07-10T10:34:38.611Z,1.50
2018-07-10T10:35:38.647Z,1.80
2018-07-10T10:36:38.585Z,1.60
2018-07-10T10:37:38.574Z,1.40
2018-07-10T10:38:38.548Z,1.40
2018-07-10T10:39:38.561Z,1.80
2018-07-10T10:40:38.539Z,2.00
2018-07-10T10:41:38.498Z,2.00
2018-07-10T10:42:38.490Z,1.60
2018-07-10T10:43:38.477Z,1.70
2018-07-10T10:44:38.484Z,1.90
2018-07-10T10:45:38.448Z,1.90
2018-07-10T10:46:38.413Z,2.00
2018-07-10T10:47:38.453Z,1.80
2018-07-10T10:48:38.447Z,1.60
2018-07-10T10:49:38.365Z,1.80
2018-07-10T10:50:38.358Z,1.80
2018-07-10T10:51:38.349Z,1.70
2018-07-10T10:52:38.338Z,1.90
2018-07-10T10:53:38.299Z,1.70
2018-07-10T10:54:38.286Z,2.00
2018-07-10T10:55:38.275Z,1.90
2018-07-10T10:56:38.256Z,2.10
2018-07-10T10:57:38.235Z,2.10
2018-07-10T10:58:38.217Z,2.10
2018-07-10T10:59:38.235Z,2.00
2018-07-10T11:00:38.210Z,2.10
2018-07-10T11:01:38.287Z,2.70
2018-07-10T11:02:38.177Z,2.00
2018-07-10T11:03:38.188Z,2.20
2018-07-10T11:04:38.111Z,2.30
2018-07-10T11:05:38.101Z,2.30
2018-07-10T11:06:38.195Z,2.40
2018-07-10T11:07:38.063Z,2.70
2018-07-10T11:08:38.161Z,2.60
2018-07-10T11:09:38.050Z,2.60
2018-07-10T11:10:38.016Z,2.60
2018-07-10T11:11:38.004Z,2.50
2018-07-10T11:12:37.997Z,2.30
2018-07-10T11:13:38.011Z,2.50
2018-07-10T11:14:37.942Z,2.70
2018-07-10T11:15:38.086Z,2.70
2018-07-10T11:16:37.910Z,2.40
2018-07-10T11:17:37.922Z,2.70
2018-07-10T11:18:37.872Z,2.20
2018-07-10T11:19:37.901Z,2.30
2018-07-10T11:20:37.838Z,2.30
2018-07-10T11:21:37.817Z,2.30
2018-07-10T11:22:37.821Z,2.80
2018-07-10T11:23:37.817Z,2.80
2018-07-10T11:24:37.810Z,2.60
2018-07-10T11:25:37.790Z,2.50
2018-07-10T11:26:37.755Z,2.50
2018-07-10T11:27:37.749Z,2.50
2018-07-10T11:28:37.704Z,2.30
2018-07-10T11:29:37.716Z,2.50
2018-07-10T11:30:37.665Z,2.70
2018-07-10T11:31:37.654Z,2.90
2018-07-10T11:32:37.644Z,2.70
2018-07-10T11:33:37.623Z,2.60
2018-07-10T11:34:37.615Z,3.00
2018-07-10T11:35:37.618Z,2.40
2018-07-10T11:36:37.568Z,2.70
2018-07-10T11:37:37.562Z,2.50
2018-07-10T11:38:37.534Z,2.60
2018-07-10T11:39:37.513Z,3.00
2018-07-10T11:40:37.503Z,3.30
2018-07-10T11:41:37.478Z,2.60
2018-07-10T11:42:37.482Z,3.00
2018-07-10T11:43:37.446Z,2.70
2018-07-10T11:44:37.480Z,2.70
2018-07-10T11:45:37.478Z,2.60
2018-07-10T11:46:37.401Z,2.60
2018-07-10T11:49:00.441Z,2.40
2018-07-10T11:50:00.390Z,2.70
2018-07-10T11:51:00.380Z,2.60
2018-07-10T11:52:00.430Z,2.40
2018-07-10T11:53:00.362Z,2.60
2018-07-10T11:54:00.569Z,2.80
2018-07-10T11:55:00.307Z,2.40
2018-07-10T11:56:00.289Z,2.20
2018-07-10T11:57:00.303Z,2.60
2018-07-10T11:58:00.272Z,2.40
2018-07-10T11:59:00.245Z,2.30
2018-07-10T12:00:00.223Z,2.40
2018-07-10T12:01:00.216Z,3.00
2018-07-10T12:02:00.283Z,2.50
2018-07-10T12:03:01.641Z,2.70
2018-07-10T12:04:00.152Z,2.80
2018-07-10T12:05:00.188Z,2.80
2018-07-10T12:06:00.134Z,2.70
2018-07-10T12:07:00.172Z,2.40
2018-07-10T12:08:00.092Z,2.80
2018-07-10T12:09:00.099Z,2.30
2018-07-10T12:10:00.051Z,2.60
2018-07-10T12:11:00.059Z,2.40
2018-07-10T12:12:00.027Z,2.90
2018-07-10T12:13:00.029Z,2.80
2018-07-10T12:13:59.986Z,2.60
2018-07-10T12:14:59.990Z,2.40
2018-07-10T12:15:59.944Z,2.50
2018-07-10T12:22:36.036Z,2.40
2018-07-10T12:22:56.417Z,2.60
2018-07-10T12:23:56.454Z,2.70
2018-07-10T12:24:56.384Z,3.30
2018-07-10T12:25:56.371Z,3.10
2018-07-10T12:26:56.344Z,3.10
2018-07-10T12:27:56.390Z,3.30
2018-07-10T12:28:56.324Z,3.70
2018-07-10T12:29:56.289Z,3.60
2018-07-10T12:30:56.289Z,3.40
2018-07-10T12:31:56.274Z,3.70
2018-07-10T12:32:56.232Z,3.50
2018-07-10T12:33:56.224Z,3.30
2018-07-10T12:34:56.222Z,3.50
2018-07-10T12:35:56.199Z,3.70
2018-07-10T12:36:56.198Z,2.90
2018-07-10T12:37:56.185Z,3.60
2018-07-10T12:38:56.158Z,3.40
2018-07-10T12:39:56.110Z,3.00
2018-07-10T12:40:56.113Z,3.00
2018-07-10T12:41:56.095Z,3.40
2018-07-10T12:42:56.065Z,2.90
2018-07-10T12:43:56.073Z,3.10
2018-07-10T12:44:56.052Z,3.00
2018-07-10T12:45:56.024Z,2.70
2018-07-10T12:46:56.018Z,3.60
2018-07-10T12:47:55.981Z,3.50
2018-07-10T12:48:55.987Z,3.30
2018-07-10T12:49:55.944Z,3.60
2018-07-10T12:50:55.930Z,3.50
2018-07-10T12:51:55.906Z,3.30
2018-07-10T12:52:55.899Z,4.00
2018-07-10T12:53:55.873Z,3.50
2018-07-10T12:54:55.895Z,3.30
2018-07-10T12:55:55.876Z,3.70
2018-07-10T12:56:55.822Z,3.70
2018-07-10T12:57:55.823Z,3.90
2018-07-10T12:58:55.818Z,4.00
2018-07-10T12:59:55.784Z,3.80
2018-07-10T13:00:55.753Z,3.80
2018-07-10T13:01:55.760Z,4.20
2018-07-10T13:02:55.720Z,3.50
2018-07-10T13:03:55.707Z,2.90
2018-07-10T13:04:55.694Z,3.60
2018-07-10T13:05:55.677Z,3.50
2018-07-10T13:06:55.672Z,3.10
2018-07-10T13:07:55.653Z,3.70
2018-07-10T13:08:55.688Z,3.80
2018-07-10T13:09:55.636Z,3.40
2018-07-10T13:10:55.590Z,3.80
2018-07-10T13:11:55.581Z,4.20
2018-07-10T13:12:55.572Z,3.40
2018-07-10T13:13:55.553Z,3.30
2018-07-10T13:14:55.528Z,4.30
2018-07-10T13:15:55.520Z,3.80
2018-07-10T13:16:55.491Z,3.70
2018-07-10T13:17:55.482Z,4.00
2018-07-10T13:18:55.467Z,3.80
2018-07-10T13:19:55.464Z,4.30
2018-07-10T13:20:55.457Z,3.80
2018-07-10T13:21:55.422Z,3.40
2018-07-10T13:22:55.394Z,3.50
2018-07-10T13:23:55.376Z,3.70
2018-07-10T13:24:55.380Z,3.70